createdAt,value
2023-04-16T00:00:50.293Z,8.45
2023-04-16T00:05:55.995Z,6.78
2023-04-16T00:10:58.945Z,9.40
2023-04-16T00:16:01.941Z,6.18
2023-04-16T00:21:05.202Z,6.22
2023-04-16T00:26:08.915Z,7.80
2023-04-16T00:31:11.953Z,6.88
2023-04-16T00:36:17.622Z,9.35
2023-04-16T00:41:20.626Z,7.57
2023-04-16T00:46:24.928Z,6.03
2023-04-16T00:51:27.982Z,10.73
2023-04-16T00:56:31.260Z,10.65
2023-04-16T01:01:33.908Z,6.07
2023-04-16T01:06:36.548Z,13.68
2023-04-16T01:11:40.050Z,9.63
2023-04-16T01:16:43.402Z,10.00
2023-04-16T01:21:46.840Z,8.30
2023-04-16T01:26:49.385Z,11.55
2023-04-16T01:31:52.278Z,6.63
2023-04-16T01:37:04.495Z,9.33
2023-04-16T01:42:07.182Z,7.45
2023-04-16T01:47:10.152Z,8.20
2023-04-16T01:52:13.492Z,9.13
2023-04-16T01:57:16.659Z,9.60
2023-04-16T02:02:20.190Z,10.48
2023-04-16T02:07:23.522Z,6.97
2023-04-16T02:12:26.976Z,9.40
2023-04-16T02:17:30.193Z,6.32
2023-04-16T02:22:44.403Z,7.60
2023-04-16T02:27:51.043Z,9.40
2023-04-16T02:33:21.996Z,9.55
2023-04-16T02:38:39.791Z,8.18
2023-04-16T02:43:46.528Z,6.22
2023-04-16T02:48:49.246Z,7.35
2023-04-16T02:54:01.247Z,10.35
2023-04-16T02:59:04.276Z,6.55
2023-04-16T03:04:07.754Z,12.85
2023-04-16T03:09:11.130Z,16.38
2023-04-16T03:14:27.163Z,8.27
2023-04-16T03:19:32.130Z,8.85
2023-04-16T03:24:34.991Z,10.32
2023-04-16T03:29:38.876Z,7.95
2023-04-16T03:34:43.948Z,9.88
2023-04-16T03:39:47.237Z,8.38
2023-04-16T03:44:51.578Z,6.93
2023-04-16T03:49:54.496Z,11.95
2023-04-16T03:54:57.313Z,9.98
2023-04-16T04:00:02.972Z,8.68
2023-04-16T04:05:19.106Z,10.90
2023-04-16T04:10:24.175Z,18.15
2023-04-16T04:15:27.311Z,7.78
2023-04-16T04:20:30.831Z,7.57
2023-04-16T04:25:34.080Z,7.60
2023-04-16T04:30:36.749Z,11.15
2023-04-16T04:35:44.111Z,10.90
2023-04-16T04:40:47.677Z,7.32
2023-04-16T04:45:52.707Z,8.88
2023-04-16T04:50:59.679Z,10.57
2023-04-16T04:56:12.122Z,7.88
2023-04-16T05:01:25.081Z,9.73
2023-04-16T05:06:29.606Z,7.82
2023-04-16T05:11:34.812Z,9.73
2023-04-16T05:16:38.348Z,7.60
2023-04-16T05:21:41.451Z,11.35
2023-04-16T05:26:50.489Z,9.15
2023-04-16T05:31:53.446Z,7.68
2023-04-16T05:37:01.109Z,9.73
2023-04-16T05:42:03.959Z,8.60
2023-04-16T05:47:09.609Z,11.52
2023-04-16T05:52:15.617Z,9.00
2023-04-16T05:57:20.605Z,9.20
2023-04-16T06:02:26.614Z,7.68
2023-04-16T06:07:29.799Z,6.57
2023-04-16T06:12:44.731Z,5.38
2023-04-16T06:17:50.032Z,7.95
2023-04-16T06:23:00.145Z,7.45
2023-04-16T06:28:06.247Z,9.20
2023-04-16T06:33:09.162Z,6.95
2023-04-16T06:38:15.675Z,9.93
2023-04-16T06:43:18.523Z,4.28
2023-04-16T06:48:30.340Z,10.18
2023-04-16T06:53:36.743Z,9.02
2023-04-16T06:58:39.748Z,10.48
2023-04-16T07:03:44.583Z,8.70
2023-04-16T07:08:49.758Z,8.65
2023-04-16T07:13:56.587Z,5.47
2023-04-16T07:19:11.588Z,8.85
2023-04-16T07:24:14.457Z,7.35
2023-04-16T07:29:17.136Z,8.02
2023-04-16T07:34:20.164Z,7.75
2023-04-16T07:39:23.644Z,6.60
2023-04-16T07:44:26.909Z,9.85
2023-04-16T07:49:29.660Z,7.90
2023-04-16T07:54:32.432Z,8.77
2023-04-16T07:59:35.069Z,10.52
2023-04-16T08:04:37.990Z,11.57
2023-04-16T08:09:52.118Z,9.50
2023-04-16T08:14:54.852Z,9.90
2023-04-16T08:19:58.217Z,10.75
2023-04-16T08:25:01.118Z,6.97
2023-04-16T08:30:04.536Z,6.47
2023-04-16T08:35:07.516Z,8.88
2023-04-16T08:40:10.484Z,7.32
2023-04-16T08:45:18.468Z,9.13
2023-04-16T08:50:26.175Z,7.65
2023-04-16T08:55:39.439Z,10.75
2023-04-16T09:00:43.764Z,11.73
2023-04-16T09:05:47.334Z,8.07
2023-04-16T09:10:51.013Z,19.58
2023-04-16T09:15:54.441Z,6.63
2023-04-16T09:20:57.746Z,10.40
2023-04-16T09:26:00.547Z,6.60
2023-04-16T09:31:21.912Z,14.23
2023-04-16T09:36:24.649Z,7.73
2023-04-16T09:41:32.045Z,8.43
2023-04-16T09:46:36.551Z,9.75
2023-04-16T09:51:42.114Z,11.10
2023-04-16T09:56:46.613Z,7.28
2023-04-16T10:01:50.652Z,9.90
2023-04-16T10:07:05.226Z,10.70
2023-04-16T10:12:07.960Z,8.02
2023-04-16T10:17:10.941Z,16.95
2023-04-16T10:22:14.014Z,9.35
2023-04-16T10:27:17.294Z,12.82
2023-04-16T10:32:21.959Z,9.50
2023-04-16T10:37:31.432Z,5.70
2023-04-16T10:42:34.732Z,6.57
2023-04-16T10:47:40.388Z,8.43
2023-04-16T10:52:43.098Z,12.30
2023-04-16T10:57:50.005Z,5.50
2023-04-16T11:02:55.713Z,9.13
2023-04-16T11:08:14.558Z,7.00
2023-04-16T11:13:18.954Z,9.77
2023-04-16T11:18:21.695Z,9.13
2023-04-16T11:23:24.322Z,10.63
2023-04-16T11:28:34.643Z,12.02
2023-04-16T11:33:38.213Z,9.75
2023-04-16T11:38:43.613Z,11.68
2023-04-16T11:43:46.195Z,8.40
2023-04-16T11:48:49.808Z,5.78
2023-04-16T11:53:53.815Z,9.88
2023-04-16T11:59:13.228Z,12.35
2023-04-16T12:04:19.380Z,6.85
2023-04-16T12:09:27.473Z,5.93
2023-04-16T12:14:30.852Z,6.63
2023-04-16T12:19:33.654Z,7.70
2023-04-16T12:24:37.438Z,7.43
2023-04-16T12:29:40.185Z,9.23
2023-04-16T12:34:52.074Z,7.88
2023-04-16T12:39:55.222Z,6.07
2023-04-16T12:44:57.907Z,7.88
2023-04-16T12:50:00.807Z,8.20
2023-04-16T12:55:03.521Z,9.90
2023-04-16T13:00:07.011Z,8.85
2023-04-16T13:05:10.302Z,11.10
2023-04-16T13:10:15.075Z,8.30
2023-04-16T13:15:18.171Z,8.00
2023-04-16T13:20:22.448Z,10.98
2023-04-16T13:25:26.658Z,7.65
2023-04-16T13:30:29.665Z,10.65
2023-04-16T13:35:32.396Z,9.07
2023-04-16T13:40:35.057Z,9.10
2023-04-16T13:45:38.555Z,11.00
2023-04-16T13:50:41.322Z,7.07
2023-04-16T13:55:44.337Z,11.13
2023-04-16T14:00:47.409Z,9.85
2023-04-16T14:05:50.046Z,7.90
2023-04-16T14:10:53.946Z,8.30
2023-04-16T14:15:58.414Z,4.85
2023-04-16T14:21:02.324Z,6.32
2023-04-16T14:26:05.103Z,7.65
2023-04-16T14:31:07.706Z,7.55
2023-04-16T14:36:10.476Z,8.73
2023-04-16T14:41:13.320Z,5.45
2023-04-16T14:46:17.907Z,9.13
2023-04-16T14:51:20.702Z,10.45
2023-04-16T14:56:23.471Z,12.48
2023-04-16T15:01:26.325Z,9.10
2023-04-16T15:06:29.022Z,7.18
2023-04-16T15:11:31.689Z,7.28
2023-04-16T15:16:34.478Z,8.75
2023-04-16T15:21:37.205Z,8.63
2023-04-16T15:26:40.045Z,13.73
2023-04-16T15:31:42.980Z,11.25
2023-04-16T15:36:45.725Z,12.45
2023-04-16T15:42:00.632Z,15.63
2023-04-16T15:47:06.492Z,14.45
2023-04-16T15:52:12.115Z,9.07
2023-04-16T15:57:14.778Z,10.25
2023-04-16T16:02:17.548Z,10.55
2023-04-16T16:07:20.714Z,13.88
2023-04-16T16:12:23.635Z,7.78
2023-04-16T16:17:26.412Z,15.10
2023-04-16T16:22:29.942Z,14.23
2023-04-16T16:27:32.631Z,13.43
2023-04-16T16:32:35.548Z,14.10
2023-04-16T16:37:38.955Z,14.10
2023-04-16T16:42:41.622Z,13.68
2023-04-16T16:47:44.360Z,17.05
2023-04-16T16:52:47.068Z,13.95
2023-04-16T16:57:50.255Z,20.05
2023-04-16T17:02:53.379Z,13.95
2023-04-16T17:07:56.057Z,18.80
2023-04-16T17:12:58.778Z,23.70
2023-04-16T17:18:01.695Z,24.95
2023-04-16T17:23:04.466Z,20.02
2023-04-16T17:28:07.100Z,17.38
2023-04-16T17:33:09.908Z,18.40
2023-04-16T17:38:12.689Z,17.05
2023-04-16T17:43:15.369Z,23.15
2023-04-16T17:48:18.105Z,23.67
2023-04-16T17:53:21.480Z,19.67
2023-04-16T17:58:26.310Z,21.10
2023-04-16T18:03:29.763Z,15.38
2023-04-16T18:08:33.924Z,24.08
2023-04-16T18:13:40.149Z,21.27
2023-04-16T18:18:44.112Z,19.85
2023-04-16T18:23:46.911Z,18.45
2023-04-16T18:28:49.564Z,13.20
2023-04-16T18:39:02.048Z,18.05
2023-04-16T18:44:05.361Z,16.30
2023-04-16T18:49:08.174Z,19.95
2023-04-16T18:54:11.283Z,16.75
2023-04-16T18:59:14.007Z,15.20
2023-04-16T19:04:17.215Z,18.17
2023-04-16T19:09:20.160Z,17.35
2023-04-16T19:14:22.807Z,17.45
2023-04-16T19:19:25.591Z,13.75
2023-04-16T19:24:28.121Z,17.75
2023-04-16T19:29:34.573Z,11.15
2023-04-16T19:34:37.286Z,15.95
2023-04-16T19:39:39.959Z,14.15
2023-04-16T19:44:42.569Z,16.40
2023-04-16T19:49:46.593Z,18.20
2023-04-16T19:54:49.676Z,15.15
2023-04-16T19:59:54.048Z,19.10
2023-04-16T20:04:57.776Z,14.07
2023-04-16T20:10:00.408Z,21.08
2023-04-16T20:15:03.188Z,16.73
2023-04-16T20:20:14.154Z,15.68
2023-04-16T20:25:19.406Z,18.55
2023-04-16T20:30:24.603Z,19.98
2023-04-16T20:35:27.279Z,26.33
2023-04-16T20:40:30.456Z,17.33
2023-04-16T20:45:38.321Z,21.35
2023-04-16T20:50:40.946Z,16.67
2023-04-16T20:55:43.854Z,21.02
2023-04-16T21:00:51.522Z,22.17
2023-04-16T21:05:55.560Z,19.65
2023-04-16T21:10:58.431Z,16.58
2023-04-16T21:16:01.304Z,18.75
2023-04-16T21:21:04.278Z,25.05
2023-04-16T21:26:07.031Z,22.55
2023-04-16T21:31:09.895Z,33.88
2023-04-16T21:36:12.532Z,19.73
2023-04-16T21:41:15.128Z,17.95
2023-04-16T21:46:17.881Z,20.67
2023-04-16T21:51:29.070Z,15.52
2023-04-16T21:56:31.845Z,16.38
2023-04-16T22:01:34.523Z,16.85
2023-04-16T22:06:37.432Z,15.98
2023-04-16T22:11:40.860Z,19.95
2023-04-16T22:16:44.973Z,19.33
2023-04-16T22:21:48.713Z,28.58
2023-04-16T22:26:51.336Z,21.45
2023-04-16T22:31:55.267Z,17.90
2023-04-16T22:36:58.157Z,18.65
2023-04-16T22:42:00.885Z,20.67
2023-04-16T22:47:03.687Z,18.60
2023-04-16T22:52:06.415Z,19.65
2023-04-16T22:57:09.114Z,19.60
2023-04-16T23:02:11.969Z,22.95
2023-04-16T23:07:16.526Z,22.13
2023-04-16T23:12:19.109Z,21.08
2023-04-16T23:17:21.766Z,24.55
2023-04-16T23:22:24.474Z,18.50
2023-04-16T23:27:27.126Z,24.40
2023-04-16T23:32:29.861Z,17.00
2023-04-16T23:37:32.546Z,18.90
2023-04-16T23:42:35.235Z,18.08
2023-04-16T23:47:38.191Z,19.25
2023-04-16T23:52:41.139Z,17.98
2023-04-16T23:57:43.766Z,16.63
